sensor_id;sensor_type;location;lat;lon;timestamp;pressure;altitude;pressure_sealevel;temperature;humidity
4326;BME280;58429;49.826;10.880;2022-12-19T00:00:23;99825;;;-2.81;73.18
4326;BME280;58429;49.826;10.880;2022-12-19T00:01:24;99816;;;-2.83;73.32
4326;BME280;58429;49.826;10.880;2022-12-19T00:02:23;99817;;;-2.88;73.24
4326;BME280;58429;49.826;10.880;2022-12-19T00:03:23;99817;;;-2.78;73.28
4326;BME280;58429;49.826;10.880;2022-12-19T00:04:23;99811;;;-2.82;73.12
4326;BME280;58429;49.826;10.880;2022-12-19T00:05:23;99819;;;-2.84;73.12
4326;BME280;58429;49.826;10.880;2022-12-19T00:06:23;99803;;;-2.81;73.13
4326;BME280;58429;49.826;10.880;2022-12-19T00:07:23;99800;;;-2.83;73.17
4326;BME280;58429;49.826;10.880;2022-12-19T00:08:23;99808;;;-2.82;73.27
4326;BME280;58429;49.826;10.880;2022-12-19T00:09:23;99810;;;-2.8;73.39
4326;BME280;58429;49.826;10.880;2022-12-19T00:10:23;99811;;;-2.81;73.29
4326;BME280;58429;49.826;10.880;2022-12-19T00:11:23;99811;;;-2.83;73.31
4326;BME280;58429;49.826;10.880;2022-12-19T00:12:24;99817;;;-2.79;73.3
4326;BME280;58429;49.826;10.880;2022-12-19T00:13:23;99806;;;-2.77;73.23
4326;BME280;58429;49.826;10.880;2022-12-19T00:14:23;99804;;;-2.79;73.19
4326;BME280;58429;49.826;10.880;2022-12-19T00:15:23;99803;;;-2.77;73.17
4326;BME280;58429;49.826;10.880;2022-12-19T00:16:24;99797;;;-2.76;73.16
4326;BME280;58429;49.826;10.880;2022-12-19T00:17:23;99800;;;-2.8;73.26
4326;BME280;58429;49.826;10.880;2022-12-19T00:18:23;99804;;;-2.83;73.24
4326;BME280;58429;49.826;10.880;2022-12-19T00:19:23;99802;;;-2.78;73.26
4326;BME280;58429;49.826;10.880;2022-12-19T00:20:23;99798;;;-2.78;73.22
4326;BME280;58429;49.826;10.880;2022-12-19T00:21:24;99792;;;-2.79;73.19
4326;BME280;58429;49.826;10.880;2022-12-19T00:22:23;99790;;;-2.83;73.17
4326;BME280;58429;49.826;10.880;2022-12-19T00:23:23;99777;;;-2.84;73.12
4326;BME280;58429;49.826;10.880;2022-12-19T00:24:23;99779;;;-2.83;73.21
4326;BME280;58429;49.826;10.880;2022-12-19T00:25:23;99779;;;-2.84;73.18
4326;BME280;58429;49.826;10.880;2022-12-19T00:26:24;99777;;;-2.85;73.15
4326;BME280;58429;49.826;10.880;2022-12-19T00:27:23;99774;;;-2.87;73.21
4326;BME280;58429;49.826;10.880;2022-12-19T00:28:23;99781;;;-2.89;73.05
4326;BME280;58429;49.826;10.880;2022-12-19T00:29:23;99767;;;-2.86;73.12
4326;BME280;58429;49.826;10.880;2022-12-19T00:30:23;99768;;;-2.91;73.05
4326;BME280;58429;49.826;10.880;2022-12-19T00:31:24;99773;;;-2.91;73.09
4326;BME280;58429;49.826;10.880;2022-12-19T00:32:23;99768;;;-2.91;73.06
4326;BME280;58429;49.826;10.880;2022-12-19T00:33:23;99776;;;-2.93;73.03
4326;BME280;58429;49.826;10.880;2022-12-19T00:34:23;99773;;;-2.93;73.05
4326;BME280;58429;49.826;10.880;2022-12-19T00:35:23;99781;;;-2.96;73.09
4326;BME280;58429;49.826;10.880;2022-12-19T00:36:24;99794;;;-2.99;73.01
4326;BME280;58429;49.826;10.880;2022-12-19T00:37:23;99798;;;-2.98;73.21
4326;BME280;58429;49.826;10.880;2022-12-19T00:38:23;99795;;;-3.04;73.24
4326;BME280;58429;49.826;10.880;2022-12-19T00:39:23;99785;;;-3.04;73.25
4326;BME280;58429;49.826;10.880;2022-12-19T00:40:23;99788;;;-3.03;73.34
4326;BME280;58429;49.826;10.880;2022-12-19T00:41:24;99794;;;-3.06;73.41
4326;BME280;58429;49.826;10.880;2022-12-19T00:42:23;99792;;;-3.09;73.39
4326;BME280;58429;49.826;10.880;2022-12-19T00:43:23;99782;;;-3.09;73.38
4326;BME280;58429;49.826;10.880;2022-12-19T00:44:23;99784;;;-3.09;73.27
4326;BME280;58429;49.826;10.880;2022-12-19T00:45:23;99778;;;-3.12;73.24
4326;BME280;58429;49.826;10.880;2022-12-19T00:46:23;99777;;;-3.1;73.22
4326;BME280;58429;49.826;10.880;2022-12-19T00:47:23;99776;;;-3.1;73.24
4326;BME280;58429;49.826;10.880;2022-12-19T00:48:23;99775;;;-3.11;73.42
4326;BME280;58429;49.826;10.880;2022-12-19T00:49:23;99779;;;-3.09;73.4
4326;BME280;58429;49.826;10.880;2022-12-19T00:50:23;99777;;;-3.11;73.33
4326;BME280;58429;49.826;10.880;2022-12-19T00:51:24;99781;;;-3.07;73.34
4326;BME280;58429;49.826;10.880;2022-12-19T00:52:23;99788;;;-3.11;73.22
4326;BME280;58429;49.826;10.880;2022-12-19T00:53:23;99796;;;-3.12;73.24
4326;BME280;58429;49.826;10.880;2022-12-19T00:54:23;99790;;;-3.11;73.33
4326;BME280;58429;49.826;10.880;2022-12-19T00:55:23;99799;;;-3.12;73.51
4326;BME280;58429;49.826;10.880;2022-12-19T00:56:24;99793;;;-3.14;73.41
4326;BME280;58429;49.826;10.880;2022-12-19T00:57:23;99787;;;-3.12;73.53
4326;BME280;58429;49.826;10.880;2022-12-19T00:58:23;99794;;;-3.11;73.53
4326;BME280;58429;49.826;10.880;2022-12-19T00:59:23;99786;;;-3.13;73.42
4326;BME280;58429;49.826;10.880;2022-12-19T01:00:23;99772;;;-3.13;73.28
4326;BME280;58429;49.826;10.880;2022-12-19T01:01:24;99775;;;-3.13;73.38
4326;BME280;58429;49.826;10.880;2022-12-19T01:02:23;99777;;;-3.14;73.54
4326;BME280;58429;49.826;10.880;2022-12-19T01:03:23;99769;;;-3.15;73.56
4326;BME280;58429;49.826;10.880;2022-12-19T01:04:23;99766;;;-3.14;73.47
4326;BME280;58429;49.826;10.880;2022-12-19T01:05:23;99754;;;-3.12;73.37
4326;BME280;58429;49.826;10.880;2022-12-19T01:06:23;99749;;;-3.15;73.23
4326;BME280;58429;49.826;10.880;2022-12-19T01:07:23;99735;;;-3.14;73.36
4326;BME280;58429;49.826;10.880;2022-12-19T01:08:23;99737;;;-3.15;73.68
4326;BME280;58429;49.826;10.880;2022-12-19T01:09:23;99740;;;-3.16;73.57
4326;BME280;58429;49.826;10.880;2022-12-19T01:10:23;99749;;;-3.17;73.62
4326;BME280;58429;49.826;10.880;2022-12-19T01:11:23;99771;;;-3.17;73.62
4326;BME280;58429;49.826;10.880;2022-12-19T01:12:23;99771;;;-3.17;73.8
4326;BME280;58429;49.826;10.880;2022-12-19T01:13:24;99773;;;-3.17;73.75
4326;BME280;58429;49.826;10.880;2022-12-19T01:14:23;99767;;;-3.18;73.61
4326;BME280;58429;49.826;10.880;2022-12-19T01:15:23;99765;;;-3.2;73.61
4326;BME280;58429;49.826;10.880;2022-12-19T01:16:23;99766;;;-3.2;73.6
4326;BME280;58429;49.826;10.880;2022-12-19T01:17:23;99770;;;-3.2;73.67
4326;BME280;58429;49.826;10.880;2022-12-19T01:18:23;99777;;;-3.2;73.82
4326;BME280;58429;49.826;10.880;2022-12-19T01:19:24;99778;;;-3.2;73.76
4326;BME280;58429;49.826;10.880;2022-12-19T01:20:23;99783;;;-3.19;73.81
4326;BME280;58429;49.826;10.880;2022-12-19T01:21:23;99784;;;-3.17;73.85
4326;BME280;58429;49.826;10.880;2022-12-19T01:22:23;99782;;;-3.18;73.93
4326;BME280;58429;49.826;10.880;2022-12-19T01:23:23;99774;;;-3.2;73.72
4326;BME280;58429;49.826;10.880;2022-12-19T01:24:23;99774;;;-3.2;73.64
4326;BME280;58429;49.826;10.880;2022-12-19T01:25:23;99761;;;-3.18;73.84
4326;BME280;58429;49.826;10.880;2022-12-19T01:26:23;99764;;;-3.2;73.83
4326;BME280;58429;49.826;10.880;2022-12-19T01:27:23;99774;;;-3.18;73.75
4326;BME280;58429;49.826;10.880;2022-12-19T01:28:23;99774;;;-3.2;73.78
4326;BME280;58429;49.826;10.880;2022-12-19T01:29:23;99773;;;-3.19;73.85
4326;BME280;58429;49.826;10.880;2022-12-19T01:30:23;99769;;;-3.17;73.81
4326;BME280;58429;49.826;10.880;2022-12-19T01:31:23;99767;;;-3.19;73.86
4326;BME280;58429;49.826;10.880;2022-12-19T01:32:23;99772;;;-3.18;73.86
4326;BME280;58429;49.826;10.880;2022-12-19T01:33:23;99778;;;-3.17;73.78
4326;BME280;58429;49.826;10.880;2022-12-19T01:34:23;99785;;;-3.17;73.85
4326;BME280;58429;49.826;10.880;2022-12-19T01:35:23;99778;;;-3.15;74.02
4326;BME280;58429;49.826;10.880;2022-12-19T01:36:23;99764;;;-3.17;73.91
4326;BME280;58429;49.826;10.880;2022-12-19T01:37:23;99758;;;-3.17;74.02
4326;BME280;58429;49.826;10.880;2022-12-19T01:38:23;99761;;;-3.15;74.11
4326;BME280;58429;49.826;10.880;2022-12-19T01:39:23;99766;;;-3.15;74.02
4326;BME280;58429;49.826;10.880;2022-12-19T01:40:23;99762;;;-3.13;73.9
4326;BME280;58429;49.826;10.880;2022-12-19T01:41:23;99766;;;-3.17;73.93
4326;BME280;58429;49.826;10.880;2022-12-19T01:42:23;99768;;;-3.16;73.85
4326;BME280;58429;49.826;10.880;2022-12-19T01:43:24;99769;;;-3.16;74.19
4326;BME280;58429;49.826;10.880;2022-12-19T01:44:24;99773;;;-3.16;74.16
4326;BME280;58429;49.826;10.880;2022-12-19T01:45:26;99772;;;-3.19;74.1
4326;BME280;58429;49.826;10.880;2022-12-19T01:46:24;99777;;;-3.16;74
4326;BME280;58429;49.826;10.880;2022-12-19T01:47:23;99772;;;-3.2;74.14
4326;BME280;58429;49.826;10.880;2022-12-19T01:48:25;99761;;;-3.2;74
4326;BME280;58429;49.826;10.880;2022-12-19T01:49:25;99762;;;-3.21;74.04
4326;BME280;58429;49.826;10.880;2022-12-19T01:50:24;99762;;;-3.19;74.02
4326;BME280;58429;49.826;10.880;2022-12-19T01:51:24;99763;;;-3.2;74.21
4326;BME280;58429;49.826;10.880;2022-12-19T01:52:23;99773;;;-3.17;74.14
4326;BME280;58429;49.826;10.880;2022-12-19T01:53:24;99764;;;-3.17;74.11
4326;BME280;58429;49.826;10.880;2022-12-19T01:54:24;99765;;;-3.17;74.13
4326;BME280;58429;49.826;10.880;2022-12-19T01:55:24;99772;;;-3.16;74.14
4326;BME280;58429;49.826;10.880;2022-12-19T01:56:25;99773;;;-3.18;74.24
4326;BME280;58429;49.826;10.880;2022-12-19T01:57:23;99765;;;-3.19;74.17
4326;BME280;58429;49.826;10.880;2022-12-19T01:58:23;99772;;;-3.2;74.26
4326;BME280;58429;49.826;10.880;2022-12-19T01:59:24;99767;;;-3.2;74.21
4326;BME280;58429;49.826;10.880;2022-12-19T02:00:23;99762;;;-3.16;74.35
4326;BME280;58429;49.826;10.880;2022-12-19T02:01:23;99758;;;-3.18;74.45
4326;BME280;58429;49.826;10.880;2022-12-19T02:02:25;99756;;;-3.15;74.42
4326;BME280;58429;49.826;10.880;2022-12-19T02:03:24;99755;;;-3.14;74.34
4326;BME280;58429;49.826;10.880;2022-12-19T02:04:24;99750;;;-3.16;74.27
4326;BME280;58429;49.826;10.880;2022-12-19T02:05:23;99752;;;-3.16;74.2
4326;BME280;58429;49.826;10.880;2022-12-19T02:06:24;99752;;;-3.14;73.86
4326;BME280;58429;49.826;10.880;2022-12-19T02:07:23;99754;;;-3.17;74.04
4326;BME280;58429;49.826;10.880;2022-12-19T02:08:24;99752;;;-3.15;74.16
4326;BME280;58429;49.826;10.880;2022-12-19T02:09:23;99749;;;-3.17;74.22
4326;BME280;58429;49.826;10.880;2022-12-19T02:10:23;99757;;;-3.16;74.1
4326;BME280;58429;49.826;10.880;2022-12-19T02:11:24;99755;;;-3.16;74.04
4326;BME280;58429;49.826;10.880;2022-12-19T02:12:23;99759;;;-3.14;74.21
4326;BME280;58429;49.826;10.880;2022-12-19T02:13:23;99756;;;-3.15;74.29
4326;BME280;58429;49.826;10.880;2022-12-19T02:14:23;99764;;;-3.16;74.26
4326;BME280;58429;49.826;10.880;2022-12-19T02:15:23;99765;;;-3.11;74.4
4326;BME280;58429;49.826;10.880;2022-12-19T02:16:26;99770;;;-3.11;74.49
4326;BME280;58429;49.826;10.880;2022-12-19T02:17:25;99761;;;-3.11;74.41
4326;BME280;58429;49.826;10.880;2022-12-19T02:18:26;99760;;;-3.12;74.41
4326;BME280;58429;49.826;10.880;2022-12-19T02:20:30;99760;;;-3.1;74.18
4326;BME280;58429;49.826;10.880;2022-12-19T02:21:24;99773;;;-3.14;74.1
4326;BME280;58429;49.826;10.880;2022-12-19T02:22:25;99778;;;-3.11;74.32
4326;BME280;58429;49.826;10.880;2022-12-19T02:23:32;99774;;;-3.09;74.42
4326;BME280;58429;49.826;10.880;2022-12-19T02:24:36;99774;;;-3.13;74.42
4326;BME280;58429;49.826;10.880;2022-12-19T02:25:30;99771;;;-3.14;74.38
4326;BME280;58429;49.826;10.880;2022-12-19T02:26:31;99768;;;-3.09;74.44
4326;BME280;58429;49.826;10.880;2022-12-19T02:27:41;99772;;;-3.09;74.46
4326;BME280;58429;49.826;10.880;2022-12-19T02:28:30;99762;;;-3.12;74.44
4326;BME280;58429;49.826;10.880;2022-12-19T02:29:30;99767;;;-3.12;74.32
4326;BME280;58429;49.826;10.880;2022-12-19T02:30:31;99768;;;-3.12;74.32
4326;BME280;58429;49.826;10.880;2022-12-19T02:31:24;99776;;;-3.14;74.61
4326;BME280;58429;49.826;10.880;2022-12-19T02:32:24;99781;;;-3.11;74.53
4326;BME280;58429;49.826;10.880;2022-12-19T02:33:25;99781;;;-3.09;74.57
4326;BME280;58429;49.826;10.880;2022-12-19T02:34:24;99783;;;-3.1;74.55
4326;BME280;58429;49.826;10.880;2022-12-19T02:35:26;99777;;;-3.1;74.45
4326;BME280;58429;49.826;10.880;2022-12-19T02:36:25;99783;;;-3.08;74.56
4326;BME280;58429;49.826;10.880;2022-12-19T02:37:25;99783;;;-3.08;74.6
4326;BME280;58429;49.826;10.880;2022-12-19T02:38:25;99777;;;-3.08;74.66
4326;BME280;58429;49.826;10.880;2022-12-19T02:39:24;99773;;;-3.1;74.56
4326;BME280;58429;49.826;10.880;2022-12-19T02:40:25;99775;;;-3.13;74.73
4326;BME280;58429;49.826;10.880;2022-12-19T02:41:25;99775;;;-3.12;74.49
4326;BME280;58429;49.826;10.880;2022-12-19T02:42:24;99773;;;-3.15;74.44
4326;BME280;58429;49.826;10.880;2022-12-19T02:43:24;99773;;;-3.11;74.58
4326;BME280;58429;49.826;10.880;2022-12-19T02:44:24;99771;;;-3.12;74.41
4326;BME280;58429;49.826;10.880;2022-12-19T02:45:24;99775;;;-3.1;74.51
4326;BME280;58429;49.826;10.880;2022-12-19T02:46:24;99775;;;-3.12;74.91
4326;BME280;58429;49.826;10.880;2022-12-19T02:47:23;99769;;;-3.16;74.97
4326;BME280;58429;49.826;10.880;2022-12-19T02:48:24;99769;;;-3.15;74.86
4326;BME280;58429;49.826;10.880;2022-12-19T02:49:24;99763;;;-3.13;74.93
4326;BME280;58429;49.826;10.880;2022-12-19T02:50:24;99760;;;-3.13;74.91
4326;BME280;58429;49.826;10.880;2022-12-19T02:51:24;99758;;;-3.15;74.99
4326;BME280;58429;49.826;10.880;2022-12-19T02:52:56;99748;;;-3.15;74.79
4326;BME280;58429;49.826;10.880;2022-12-19T02:53:24;99744;;;-3.14;74.69
4326;BME280;58429;49.826;10.880;2022-12-19T02:54:24;99741;;;-3.15;74.62
4326;BME280;58429;49.826;10.880;2022-12-19T02:55:24;99740;;;-3.16;74.95
4326;BME280;58429;49.826;10.880;2022-12-19T02:56:31;99742;;;-3.16;74.83
4326;BME280;58429;49.826;10.880;2022-12-19T02:57:24;99752;;;-3.17;75.11
4326;BME280;58429;49.826;10.880;2022-12-19T02:58:28;99749;;;-3.19;75.19
4326;BME280;58429;49.826;10.880;2022-12-19T02:59:28;99745;;;-3.17;75.04
4326;BME280;58429;49.826;10.880;2022-12-19T03:00:24;99743;;;-3.17;75.06
4326;BME280;58429;49.826;10.880;2022-12-19T03:01:28;99748;;;-3.18;75.2
4326;BME280;58429;49.826;10.880;2022-12-19T03:02:25;99756;;;-3.17;75.15
4326;BME280;58429;49.826;10.880;2022-12-19T03:03:26;99747;;;-3.2;75.07
4326;BME280;58429;49.826;10.880;2022-12-19T03:04:27;99741;;;-3.17;75.01
4326;BME280;58429;49.826;10.880;2022-12-19T03:05:25;99737;;;-3.16;75.06
4326;BME280;58429;49.826;10.880;2022-12-19T03:06:25;99741;;;-3.15;75.12
4326;BME280;58429;49.826;10.880;2022-12-19T03:07:26;99735;;;-3.17;75.15
4326;BME280;58429;49.826;10.880;2022-12-19T03:08:24;99734;;;-3.15;75.1
4326;BME280;58429;49.826;10.880;2022-12-19T03:09:25;99736;;;-3.15;75.16
4326;BME280;58429;49.826;10.880;2022-12-19T03:10:25;99741;;;-3.16;75.12
4326;BME280;58429;49.826;10.880;2022-12-19T03:11:24;99733;;;-3.15;74.99
4326;BME280;58429;49.826;10.880;2022-12-19T03:12:29;99727;;;-3.15;75.01
4326;BME280;58429;49.826;10.880;2022-12-19T03:13:24;99730;;;-3.16;75
4326;BME280;58429;49.826;10.880;2022-12-19T03:14:24;99735;;;-3.14;74.96
4326;BME280;58429;49.826;10.880;2022-12-19T03:15:24;99737;;;-3.12;74.99
4326;BME280;58429;49.826;10.880;2022-12-19T03:16:24;99735;;;-3.13;74.94
4326;BME280;58429;49.826;10.880;2022-12-19T03:17:24;99747;;;-3.15;75.1
4326;BME280;58429;49.826;10.880;2022-12-19T03:18:24;99742;;;-3.14;74.97
4326;BME280;58429;49.826;10.880;2022-12-19T03:19:24;99743;;;-3.16;75.13
4326;BME280;58429;49.826;10.880;2022-12-19T03:20:25;99748;;;-3.14;75.18
4326;BME280;58429;49.826;10.880;2022-12-19T03:21:24;99735;;;-3.15;75.28
4326;BME280;58429;49.826;10.880;2022-12-19T03:22:24;99744;;;-3.14;75.2
4326;BME280;58429;49.826;10.880;2022-12-19T03:23:24;99745;;;-3.11;75.3
4326;BME280;58429;49.826;10.880;2022-12-19T03:24:24;99744;;;-3.11;75.33
4326;BME280;58429;49.826;10.880;2022-12-19T03:25:24;99747;;;-3.1;75.23
4326;BME280;58429;49.826;10.880;2022-12-19T03:26:26;99753;;;-3.05;75.31
4326;BME280;58429;49.826;10.880;2022-12-19T03:27:24;99753;;;-3.07;75.27
4326;BME280;58429;49.826;10.880;2022-12-19T03:28:25;99746;;;-3.05;75.33
4326;BME280;58429;49.826;10.880;2022-12-19T03:29:24;99744;;;-3.03;75.29
4326;BME280;58429;49.826;10.880;2022-12-19T03:30:24;99758;;;-3.05;75.01
4326;BME280;58429;49.826;10.880;2022-12-19T03:31:25;99750;;;-3.06;75.15
4326;BME280;58429;49.826;10.880;2022-12-19T03:32:24;99764;;;-3.06;75.13
4326;BME280;58429;49.826;10.880;2022-12-19T03:33:24;99746;;;-3.07;75.17
4326;BME280;58429;49.826;10.880;2022-12-19T03:34:24;99743;;;-3.03;75.28
4326;BME280;58429;49.826;10.880;2022-12-19T03:35:24;99732;;;-3.05;75.27
4326;BME280;58429;49.826;10.880;2022-12-19T03:36:25;99735;;;-3.04;75.26
4326;BME280;58429;49.826;10.880;2022-12-19T03:37:24;99741;;;-3.03;75.25
4326;BME280;58429;49.826;10.880;2022-12-19T03:38:24;99749;;;-3.02;75.3
4326;BME280;58429;49.826;10.880;2022-12-19T03:39:24;99752;;;-3.04;75.23
4326;BME280;58429;49.826;10.880;2022-12-19T03:40:24;99746;;;-3.02;75.25
4326;BME280;58429;49.826;10.880;2022-12-19T03:41:24;99741;;;-3.01;75.25
4326;BME280;58429;49.826;10.880;2022-12-19T03:42:24;99750;;;-2.98;75.29
4326;BME280;58429;49.826;10.880;2022-12-19T03:43:24;99743;;;-2.99;75.4
4326;BME280;58429;49.826;10.880;2022-12-19T03:44:24;99723;;;-3;75.43
4326;BME280;58429;49.826;10.880;2022-12-19T03:45:25;99712;;;-2.98;75.32
4326;BME280;58429;49.826;10.880;2022-12-19T03:46:24;99724;;;-2.97;75.36
4326;BME280;58429;49.826;10.880;2022-12-19T03:47:25;99730;;;-2.98;75.31
4326;BME280;58429;49.826;10.880;2022-12-19T03:48:25;99719;;;-2.99;75.18
4326;BME280;58429;49.826;10.880;2022-12-19T03:49:24;99694;;;-2.99;75.32
4326;BME280;58429;49.826;10.880;2022-12-19T03:50:24;99698;;;-2.97;75.54
4326;BME280;58429;49.826;10.880;2022-12-19T03:51:26;99701;;;-2.96;75.63
4326;BME280;58429;49.826;10.880;2022-12-19T03:52:25;99693;;;-2.98;75.66
4326;BME280;58429;49.826;10.880;2022-12-19T03:53:27;99697;;;-2.96;75.62
4326;BME280;58429;49.826;10.880;2022-12-19T03:54:24;99699;;;-2.94;75.68
4326;BME280;58429;49.826;10.880;2022-12-19T03:55:25;99705;;;-2.95;75.63
4326;BME280;58429;49.826;10.880;2022-12-19T03:56:26;99711;;;-2.95;75.6
4326;BME280;58429;49.826;10.880;2022-12-19T03:57:27;99700;;;-2.97;75.4
4326;BME280;58429;49.826;10.880;2022-12-19T03:58:25;99702;;;-2.96;75.46
4326;BME280;58429;49.826;10.880;2022-12-19T03:59:25;99704;;;-2.96;75.54
4326;BME280;58429;49.826;10.880;2022-12-19T04:00:24;99719;;;-2.93;75.6
4326;BME280;58429;49.826;10.880;2022-12-19T04:01:24;99718;;;-2.96;75.42
4326;BME280;58429;49.826;10.880;2022-12-19T04:02:24;99709;;;-2.93;75.31
4326;BME280;58429;49.826;10.880;2022-12-19T04:03:24;99721;;;-2.96;75.4
4326;BME280;58429;49.826;10.880;2022-12-19T04:04:24;99702;;;-2.94;75.43
4326;BME280;58429;49.826;10.880;2022-12-19T04:05:25;99708;;;-2.96;75.54
4326;BME280;58429;49.826;10.880;2022-12-19T04:06:24;99713;;;-2.92;75.43
4326;BME280;58429;49.826;10.880;2022-12-19T04:07:24;99705;;;-2.95;75.33
4326;BME280;58429;49.826;10.880;2022-12-19T04:08:24;99698;;;-2.96;75.37
4326;BME280;58429;49.826;10.880;2022-12-19T04:09:24;99708;;;-2.93;75.44
4326;BME280;58429;49.826;10.880;2022-12-19T04:10:24;99706;;;-2.9;75.48
4326;BME280;58429;49.826;10.880;2022-12-19T04:11:24;99689;;;-2.93;75.27
4326;BME280;58429;49.826;10.880;2022-12-19T04:12:25;99688;;;-2.92;75.33
4326;BME280;58429;49.826;10.880;2022-12-19T04:13:24;99689;;;-2.92;75.43
4326;BME280;58429;49.826;10.880;2022-12-19T04:14:26;99674;;;-2.9;75.55
4326;BME280;58429;49.826;10.880;2022-12-19T04:15:30;99674;;;-2.88;75.66
4326;BME280;58429;49.826;10.880;2022-12-19T04:16:27;99675;;;-2.87;75.63
4326;BME280;58429;49.826;10.880;2022-12-19T04:17:25;99694;;;-2.87;75.65
4326;BME280;58429;49.826;10.880;2022-12-19T04:18:24;99685;;;-2.88;75.62
4326;BME280;58429;49.826;10.880;2022-12-19T04:19:28;99689;;;-2.87;75.6
4326;BME280;58429;49.826;10.880;2022-12-19T04:20:24;99691;;;-2.87;75.58
4326;BME280;58429;49.826;10.880;2022-12-19T04:21:26;99679;;;-2.89;75.56
4326;BME280;58429;49.826;10.880;2022-12-19T04:22:25;99689;;;-2.84;75.57
4326;BME280;58429;49.826;10.880;2022-12-19T04:23:26;99687;;;-2.86;75.52
4326;BME280;58429;49.826;10.880;2022-12-19T04:24:24;99695;;;-2.86;75.5
4326;BME280;58429;49.826;10.880;2022-12-19T04:25:26;99697;;;-2.8;75.5
4326;BME280;58429;49.826;10.880;2022-12-19T04:26:24;99694;;;-2.83;75.46
4326;BME280;58429;49.826;10.880;2022-12-19T04:27:24;99694;;;-2.81;75.49
4326;BME280;58429;49.826;10.880;2022-12-19T04:28:24;99690;;;-2.81;75.55
4326;BME280;58429;49.826;10.880;2022-12-19T04:29:25;99693;;;-2.79;75.55
4326;BME280;58429;49.826;10.880;2022-12-19T04:30:24;99694;;;-2.83;75.53
4326;BME280;58429;49.826;10.880;2022-12-19T04:31:24;99694;;;-2.82;75.57
4326;BME280;58429;49.826;10.880;2022-12-19T04:32:24;99690;;;-2.79;75.56
4326;BME280;58429;49.826;10.880;2022-12-19T04:33:24;99697;;;-2.79;75.37
4326;BME280;58429;49.826;10.880;2022-12-19T04:34:24;99692;;;-2.8;75.47
4326;BME280;58429;49.826;10.880;2022-12-19T04:35:24;99704;;;-2.78;75.54
4326;BME280;58429;49.826;10.880;2022-12-19T04:36:24;99713;;;-2.79;75.51
4326;BME280;58429;49.826;10.880;2022-12-19T04:37:24;99713;;;-2.79;75.2
4326;BME280;58429;49.826;10.880;2022-12-19T04:38:24;99716;;;-2.83;75.23
4326;BME280;58429;49.826;10.880;2022-12-19T04:39:24;99718;;;-2.82;75.27
4326;BME280;58429;49.826;10.880;2022-12-19T04:40:24;99708;;;-2.83;75.36
4326;BME280;58429;49.826;10.880;2022-12-19T04:41:24;99711;;;-2.82;75.4
4326;BME280;58429;49.826;10.880;2022-12-19T04:42:24;99716;;;-2.83;75.34
4326;BME280;58429;49.826;10.880;2022-12-19T04:43:24;99716;;;-2.78;75.39
4326;BME280;58429;49.826;10.880;2022-12-19T04:44:24;99711;;;-2.82;75.31
4326;BME280;58429;49.826;10.880;2022-12-19T04:45:24;99712;;;-2.83;75.31
4326;BME280;58429;49.826;10.880;2022-12-19T04:46:24;99708;;;-2.8;75.31
4326;BME280;58429;49.826;10.880;2022-12-19T04:47:24;99708;;;-2.83;75.35
4326;BME280;58429;49.826;10.880;2022-12-19T04:48:24;99710;;;-2.79;75.43
4326;BME280;58429;49.826;10.880;2022-12-19T04:49:24;99714;;;-2.77;75.5
4326;BME280;58429;49.826;10.880;2022-12-19T04:50:24;99715;;;-2.81;75.25
4326;BME280;58429;49.826;10.880;2022-12-19T04:51:24;99710;;;-2.78;75.24
4326;BME280;58429;49.826;10.880;2022-12-19T04:52:24;99711;;;-2.8;75.28
4326;BME280;58429;49.826;10.880;2022-12-19T04:53:24;99719;;;-2.82;75.31
4326;BME280;58429;49.826;10.880;2022-12-19T04:54:24;99718;;;-2.79;75.4
4326;BME280;58429;49.826;10.880;2022-12-19T04:55:24;99715;;;-2.85;75.37
4326;BME280;58429;49.826;10.880;2022-12-19T04:56:24;99711;;;-2.77;75.35
4326;BME280;58429;49.826;10.880;2022-12-19T04:57:24;99717;;;-2.78;75.61
4326;BME280;58429;49.826;10.880;2022-12-19T04:58:25;99705;;;-2.8;75.54
4326;BME280;58429;49.826;10.880;2022-12-19T04:59:24;99714;;;-2.8;75.76
4326;BME280;58429;49.826;10.880;2022-12-19T05:00:24;99704;;;-2.81;75.57
4326;BME280;58429;49.826;10.880;2022-12-19T05:01:24;99708;;;-2.79;75.89
4326;BME280;58429;49.826;10.880;2022-12-19T05:02:24;99697;;;-2.8;76.1
4326;BME280;58429;49.826;10.880;2022-12-19T05:03:24;99700;;;-2.83;76.24
4326;BME280;58429;49.826;10.880;2022-12-19T05:04:24;99700;;;-2.84;76.25
4326;BME280;58429;49.826;10.880;2022-12-19T05:05:24;99695;;;-2.8;76.31
4326;BME280;58429;49.826;10.880;2022-12-19T05:06:24;99704;;;-2.83;76.21
4326;BME280;58429;49.826;10.880;2022-12-19T05:07:24;99707;;;-2.77;76.14
4326;BME280;58429;49.826;10.880;2022-12-19T05:08:24;99704;;;-2.77;76.18
4326;BME280;58429;49.826;10.880;2022-12-19T05:09:24;99707;;;-2.8;76.39
4326;BME280;58429;49.826;10.880;2022-12-19T05:10:24;99712;;;-2.8;76.74
4326;BME280;58429;49.826;10.880;2022-12-19T05:11:24;99711;;;-2.82;76.67
4326;BME280;58429;49.826;10.880;2022-12-19T05:12:24;99716;;;-2.84;76.73
4326;BME280;58429;49.826;10.880;2022-12-19T05:13:24;99721;;;-2.83;77.07
4326;BME280;58429;49.826;10.880;2022-12-19T05:14:24;99711;;;-2.88;77.05
4326;BME280;58429;49.826;10.880;2022-12-19T05:15:24;99713;;;-2.8;77.13
4326;BME280;58429;49.826;10.880;2022-12-19T05:16:24;99717;;;-2.87;76.99
4326;BME280;58429;49.826;10.880;2022-12-19T05:17:24;99720;;;-2.85;77.16
4326;BME280;58429;49.826;10.880;2022-12-19T05:18:24;99721;;;-2.84;77.31
4326;BME280;58429;49.826;10.880;2022-12-19T05:19:24;99720;;;-2.85;77.3
4326;BME280;58429;49.826;10.880;2022-12-19T05:20:24;99715;;;-2.85;77.35
4326;BME280;58429;49.826;10.880;2022-12-19T05:21:24;99727;;;-2.88;77.66
4326;BME280;58429;49.826;10.880;2022-12-19T05:22:24;99727;;;-2.9;77.61
4326;BME280;58429;49.826;10.880;2022-12-19T05:23:24;99720;;;-2.86;77.37
4326;BME280;58429;49.826;10.880;2022-12-19T05:24:24;99725;;;-2.85;77.06
4326;BME280;58429;49.826;10.880;2022-12-19T05:25:24;99728;;;-2.88;77.4
4326;BME280;58429;49.826;10.880;2022-12-19T05:26:24;99732;;;-2.87;77.35
4326;BME280;58429;49.826;10.880;2022-12-19T05:27:24;99724;;;-2.85;77.42
4326;BME280;58429;49.826;10.880;2022-12-19T05:28:24;99723;;;-2.86;77.73
4326;BME280;58429;49.826;10.880;2022-12-19T05:29:24;99723;;;-2.82;77.41
4326;BME280;58429;49.826;10.880;2022-12-19T05:30:24;99711;;;-2.84;77.49
4326;BME280;58429;49.826;10.880;2022-12-19T05:31:24;99726;;;-2.9;77.3
4326;BME280;58429;49.826;10.880;2022-12-19T05:32:24;99717;;;-2.85;77.55
4326;BME280;58429;49.826;10.880;2022-12-19T05:33:24;99719;;;-2.86;77.35